Flight Track Log - Related Links

Times and Time Zones

All times are in EDT time to prevent confusion due to time zone crossing. See the SWA1096 flight status page for this flight to view local times or setup timezone preferences in your user account.

Time Position Orientation Groundspeed Altitude Reporting Facility
EDT Latitude Longitude Course Direction KTS MPH feet Rate Location/Type
03:42PM 39.1333 -76.6333 90° East 196 226 2,500  Level Potomac TRACON
03:45PM 39.0308 -76.4922 133° Southeast 246 283 8,200 2,670 Climbing Washington Center
03:46PM 39.0628 -76.3883 68° East 243 280 11,000 3,050 Climbing Washington Center
03:47PM 39.0928 -76.2628 73° East 283 326 14,300 3,174 Climbing Washington Center
03:48PM 39.1667 -76.6357 90° East  Level FlightAware Approximate
03:48PM 39.1247 -76.1347 72° East 338 389 17,400  Level Washington Center
03:49PM 39.1606 -75.9986 71° East 373 429 20,000 2,672 Climbing Washington Center
03:50PM 39.2089 -75.8647 65° Northeast 393 452 22,700 2,529 Climbing Washington Center
03:51PM 39.2925 -75.7553 45° Northeast 403 464 25,100 2,350 Climbing Washington Center
03:52PM 39.3761 -75.6453 45° Northeast 416 479 27,400 2,118 Climbing Washington Center
03:53PM 39.4636 -75.5325 45° Northeast 428 493 29,300 1,835 Climbing Washington Center
03:54PM 39.5531 -75.4167 45° Northeast 433 498 31,100 1,750 Climbing Washington Center
03:55PM 39.6592 -75.3356 30° Northeast 439 505 32,800 1,670 Climbing Washington Center
03:55PM 39.7267 -75.2894 28° Northeast 439 505 33,800 1,333 Climbing New York Center
03:56PM 39.8489 -75.2053 28° Northeast 451 519 35,000 595 Climbing New York Center
03:57PM 39.9456 -75.1303 31° Northeast 451 519 35,000  Level New York Center
03:58PM 40.0672 -75.0456 28° Northeast 451 519 35,000  Level New York Center
03:59PM 40.1722 -74.9678 30° Northeast 451 519 35,000  Level New York Center
04:00PM 40.2811 -74.8956 27° Northeast 446 513 35,000  Level New York Center
04:01PM 40.3933 -74.8450 19° North 433 498 35,000  Level New York Center
04:02PM 40.5097 -74.7972 17° North 427 491 35,000  Level New York Center
04:03PM 40.6217 -74.7492 18° North 422 486 35,000  Level New York Center
04:04PM 40.7356 -74.7039 17° North 428 493 35,000  Level New York Center
04:07PM 40.9708 -74.5981 19° North 442 509 35,000  Level Boston Center
04:08PM 41.1075 -74.5364 19° North 431 496 35,000  Level Boston Center
04:09PM 41.2189 -74.4906 17° North 426 490 35,000  Level Boston Center
04:10PM 41.3281 -74.4469 17° North 426 490 35,000  Level Boston Center
04:11PM 41.4478 -74.3897 20° North 426 490 35,000  Level Boston Center
04:12PM 41.5547 -74.3458 17° North 431 496 35,000 -197 Level Boston Center
04:13PM 41.6453 -74.3042 19° North 431 496 34,600 -843 Descending Boston Center
04:14PM 41.7775 -74.2439 19° North 423 487 33,300 -1,100 Descending Boston Center
04:15PM 41.8844 -74.1997 17° North 409 471 32,400 -1,041 Descending Boston Center
04:16PM 41.9997 -74.1497 18° North 414 476 31,200 -1,780 Descending Boston Center
04:17PM 42.1131 -74.0969 19° North 419 482 28,900 -2,288 Descending Boston Center
04:18PM 42.2022 -73.9983 39° Northeast 414 476 26,700 -1,918 Descending Boston Center
04:19PM 42.2542 -73.8508 65° Northeast 400 460 25,000 -1,866 Descending Boston Center
04:20PM 42.3058 -73.7117 63° Northeast 405 466 23,000 -2,017 Descending Boston Center
04:21PM 42.3572 -73.5694 64° Northeast 417 480 21,000 -1,869 Descending Boston Center
04:22PM 42.4064 -73.4297 64° Northeast 405 466 19,200 -992 Descending Boston Center
04:23PM 42.4578 -73.2786 65° Northeast 399 459 19,000 -102 Descending Boston Center
04:24PM 42.4981 -73.1553 66° East 393 452 19,000  Level Boston Center
04:25PM 42.5533 -72.9981 64° Northeast 405 466 19,000  Level Boston Center
04:26PM 42.6103 -72.8436 63° Northeast 439 505 19,000  Level Boston Center
04:27PM 42.6628 -72.6886 65° Northeast 439 505 19,000 -1,339 Level Boston Center
04:28PM 42.7108 -72.5417 66° East 433 498 16,300 -2,571 Descending Boston Center
04:29PM 42.7608 -72.3950 65° Northeast 428 493 13,900 -2,319 Descending Boston Center
04:30PM 42.7942 -72.2619 71° East 416 479 11,700 -1,736 Descending Boston Center
04:31PM 42.8083 -72.0947 83° East 410 472 10,400 -1,033 Descending Boston Center
04:32PM 42.8308 -71.9814 75° East 361 415 9,600 -1,475 Descending Boston Center
04:33PM 42.8803 -71.8622 60° Northeast 330 380 7,500 -1,916 Descending Boston Center
04:34PM 42.9217 -71.7681 59° Northeast 325 374 5,800 -1,623 Descending Boston Center
04:35PM 42.9750 -71.6625 55° Northeast 314 361 4,200 -1,169 Descending Boston Center
04:36PM 42.9911 -71.5744 76° East 277 319 3,500 -915 Descending Boston Center
04:37PM 43.0008 -71.4806 82° East 239 275 2,400 -1,180 Descending Boston Center
04:38PM 42.9692 -71.4556 150° Southeast 137 158 1,100 -984 Descending Boston Center
04:39PM 42.9397 -71.4275 145° Southeast 127 146 400 3,950 Descending Boston Center
04:40PM 42.9147 -71.3997 141° Southeast 127 146 9,000 4,373 Climbing Boston Center
04:41PM 42.8872 -71.3719 143° Southeast 127 146 9,000  Level Boston Center
04:42PM 42.8619 -71.3439 141° Southeast 127 146 9,000  Level Boston Center
04:43PM 42.8408 -71.3217 142° Southeast 127 146 9,000  Level Boston Center
04:45PM 42.8408 -71.3217 36° Northeast 127 146 9,000  Level Boston Center
04:47PM 42.9167 -71.4333 314° West  Level FlightAware Approximate
04:54PM 42.9328 -71.4358 314° West  Level Estimated
04:55PM 42.9328 -71.4358 314° West  Level Estimated
04:56PM 42.9328 -71.4358 314° West  Level Estimated
04:57PM 42.9328 -71.4358 314° West  Level Estimated
04:58PM 42.9328 -71.4358 314° West  Level Estimated

Login

Don't have an account? Register now (free) for customized features, flight alerts, and more!